createdAt,value
2018-09-29T00:00:19.452Z,1019.40
2018-09-29T00:01:19.456Z,1019.44
2018-09-29T00:02:19.423Z,1019.39
2018-09-29T00:03:19.493Z,1019.38
2018-09-29T00:04:19.493Z,1019.44
2018-09-29T00:05:19.517Z,1019.45
2018-09-29T00:06:19.538Z,1019.40
2018-09-29T00:07:19.437Z,1019.40
2018-09-29T00:08:19.525Z,1019.44
2018-09-29T00:09:19.507Z,1019.43
2018-09-29T00:10:19.543Z,1019.48
2018-09-29T00:11:19.509Z,1019.48
2018-09-29T00:12:19.517Z,1019.53
2018-09-29T00:13:19.446Z,1019.51
2018-09-29T00:14:19.425Z,1019.52
2018-09-29T00:15:19.395Z,1019.47
2018-09-29T00:16:19.439Z,1019.48
2018-09-29T00:17:19.531Z,1019.53
2018-09-29T00:18:19.470Z,1019.52
2018-09-29T00:19:19.536Z,1019.47
2018-09-29T00:20:19.529Z,1019.49
2018-09-29T00:21:19.473Z,1019.44
2018-09-29T00:22:19.515Z,1019.46
2018-09-29T00:23:19.435Z,1019.49
2018-09-29T00:24:19.472Z,1019.49
2018-09-29T00:25:19.534Z,1019.51
2018-09-29T00:26:19.453Z,1019.49
2018-09-29T00:27:19.524Z,1019.52
2018-09-29T00:28:19.530Z,1019.47
2018-09-29T00:29:19.528Z,1019.51
2018-09-29T00:30:19.490Z,1019.57
2018-09-29T00:31:19.539Z,1019.55
2018-09-29T00:32:19.414Z,1019.59
2018-09-29T00:33:19.468Z,1019.54
2018-09-29T00:34:19.521Z,1019.58
2018-09-29T00:35:19.461Z,1019.60
2018-09-29T00:36:19.531Z,1019.62
2018-09-29T00:37:19.474Z,1019.61
2018-09-29T00:38:19.455Z,1019.61
2018-09-29T00:39:19.476Z,1019.62
2018-09-29T00:40:19.446Z,1019.65
2018-09-29T00:41:19.525Z,1019.64
2018-09-29T00:42:19.422Z,1019.67
2018-09-29T00:43:19.522Z,1019.67
2018-09-29T00:44:19.522Z,1019.66
2018-09-29T00:45:19.502Z,1019.63
2018-09-29T00:46:19.615Z,1019.54
2018-09-29T00:47:19.524Z,1019.60
2018-09-29T00:48:19.444Z,1019.57
2018-09-29T00:49:19.532Z,1019.56
2018-09-29T00:50:19.523Z,1019.55
2018-09-29T00:51:19.459Z,1019.57
2018-09-29T00:52:19.524Z,1019.59
2018-09-29T00:53:19.459Z,1019.60
2018-09-29T00:54:19.529Z,1019.60
2018-09-29T00:55:19.469Z,1019.58
2018-09-29T00:56:19.451Z,1019.56
2018-09-29T00:57:19.479Z,1019.56
2018-09-29T00:58:19.567Z,1019.55
2018-09-29T00:59:19.500Z,1019.62
2018-09-29T01:00:19.565Z,1019.62
2018-09-29T01:01:19.572Z,1019.58
2018-09-29T01:02:19.567Z,1019.55
2018-09-29T01:03:19.600Z,1019.56
2018-09-29T01:04:19.669Z,1019.51
2018-09-29T01:05:19.502Z,1019.49
2018-09-29T01:06:19.506Z,1019.48
2018-09-29T01:07:19.539Z,1019.47
2018-09-29T01:08:19.465Z,1019.49
2018-09-29T01:09:19.532Z,1019.51
2018-09-29T01:10:19.535Z,1019.53
2018-09-29T01:11:19.536Z,1019.54
2018-09-29T01:12:19.540Z,1019.54
2018-09-29T01:13:19.464Z,1019.52
2018-09-29T01:14:19.490Z,1019.58
2018-09-29T01:15:19.467Z,1019.55
2018-09-29T01:16:19.543Z,1019.57
2018-09-29T01:17:19.471Z,1019.56
2018-09-29T01:18:19.533Z,1019.57
2018-09-29T01:19:19.416Z,1019.55
2018-09-29T01:20:19.508Z,1019.53
2018-09-29T01:21:19.485Z,1019.52
2018-09-29T01:22:19.530Z,1019.52
2018-09-29T01:23:19.444Z,1019.48
2018-09-29T01:24:19.532Z,1019.46
2018-09-29T01:25:19.452Z,1019.46
2018-09-29T01:26:19.478Z,1019.44
2018-09-29T01:27:19.512Z,1019.41
2018-09-29T01:28:19.547Z,1019.36
2018-09-29T01:29:19.455Z,1019.38
2018-09-29T01:30:19.550Z,1019.40
2018-09-29T01:31:19.475Z,1019.43
2018-09-29T01:32:19.549Z,1019.40
2018-09-29T01:33:19.517Z,1019.42
2018-09-29T01:34:19.507Z,1019.40
2018-09-29T01:35:19.413Z,1019.35
2018-09-29T01:36:19.577Z,1019.35
2018-09-29T01:37:19.522Z,1019.34
2018-09-29T01:38:19.429Z,1019.37
2018-09-29T01:39:19.465Z,1019.36
2018-09-29T01:40:19.501Z,1019.34
2018-09-29T01:41:19.489Z,1019.38
2018-09-29T01:42:19.525Z,1019.31
2018-09-29T01:43:19.469Z,1019.33
2018-09-29T01:44:19.487Z,1019.29
2018-09-29T01:45:19.468Z,1019.30
2018-09-29T01:46:19.487Z,1019.27
2018-09-29T01:47:19.549Z,1019.28
2018-09-29T01:48:19.631Z,1019.36
2018-09-29T01:49:19.513Z,1019.37
2018-09-29T01:50:19.613Z,1019.38
2018-09-29T01:51:19.575Z,1019.42
2018-09-29T01:52:19.486Z,1019.36
2018-09-29T01:53:19.537Z,1019.32
2018-09-29T01:54:19.606Z,1019.31
2018-09-29T01:55:19.492Z,1019.32
2018-09-29T01:56:19.603Z,1019.28
2018-09-29T01:57:19.578Z,1019.29
2018-09-29T01:58:19.580Z,1019.32
2018-09-29T01:59:19.523Z,1019.29
2018-09-29T02:00:19.509Z,1019.33
2018-09-29T02:01:19.524Z,1019.34
2018-09-29T02:02:19.516Z,1019.36
2018-09-29T02:03:19.522Z,1019.39
2018-09-29T02:04:19.513Z,1019.41
2018-09-29T02:05:19.522Z,1019.43
2018-09-29T02:06:19.514Z,1019.41
2018-09-29T02:07:19.485Z,1019.44
2018-09-29T02:08:19.578Z,1019.42
2018-09-29T02:09:19.517Z,1019.45
2018-09-29T02:10:19.507Z,1019.46
2018-09-29T02:11:19.589Z,1019.49
2018-09-29T02:12:19.582Z,1019.48
2018-09-29T02:13:19.522Z,1019.48
2018-09-29T02:14:28.051Z,1019.45
2018-09-29T02:15:19.586Z,1019.46
2018-09-29T02:16:19.515Z,1019.40
2018-09-29T02:17:19.592Z,1019.46
2018-09-29T02:18:19.565Z,1019.44
2018-09-29T02:19:19.545Z,1019.45
2018-09-29T02:20:19.621Z,1019.49
2018-09-29T02:21:19.597Z,1019.53
2018-09-29T02:22:19.595Z,1019.51
2018-09-29T02:23:19.631Z,1019.52
2018-09-29T02:24:19.561Z,1019.52
2018-09-29T02:25:19.617Z,1019.50
2018-09-29T02:26:19.593Z,1019.54
2018-09-29T02:27:19.608Z,1019.54
2018-09-29T02:28:19.534Z,1019.54
2018-09-29T02:29:19.662Z,1019.52
2018-09-29T02:30:19.605Z,1019.47
2018-09-29T02:31:19.608Z,1019.49
2018-09-29T02:32:19.549Z,1019.53
2018-09-29T02:33:19.541Z,1019.55
2018-09-29T02:34:19.569Z,1019.55
2018-09-29T02:35:19.551Z,1019.57
2018-09-29T02:36:19.555Z,1019.59
2018-09-29T02:37:19.543Z,1019.58
2018-09-29T02:38:19.610Z,1019.60
2018-09-29T02:39:19.527Z,1019.58
2018-09-29T02:40:19.623Z,1019.56
2018-09-29T02:41:19.642Z,1019.54
2018-09-29T02:42:19.590Z,1019.56
2018-09-29T02:43:19.556Z,1019.58
2018-09-29T02:44:19.606Z,1019.58
2018-09-29T02:45:19.550Z,1019.60
2018-09-29T02:46:19.629Z,1019.56
2018-09-29T02:47:19.540Z,1019.54
2018-09-29T02:48:19.542Z,1019.50
2018-09-29T02:49:19.606Z,1019.48
2018-09-29T02:50:19.612Z,1019.50
2018-09-29T02:51:19.606Z,1019.50
2018-09-29T02:52:19.543Z,1019.49
2018-09-29T02:53:19.541Z,1019.50
2018-09-29T02:54:19.506Z,1019.48
2018-09-29T02:55:19.614Z,1019.48
2018-09-29T02:56:19.622Z,1019.50
2018-09-29T02:57:19.612Z,1019.50
2018-09-29T02:58:19.657Z,1019.48
2018-09-29T02:59:19.618Z,1019.47
2018-09-29T03:00:19.621Z,1019.43
2018-09-29T03:01:19.650Z,1019.41
2018-09-29T03:02:19.649Z,1019.44
2018-09-29T03:03:19.665Z,1019.46
2018-09-29T03:04:19.605Z,1019.48
2018-09-29T03:05:19.762Z,1019.45
2018-09-29T03:06:19.661Z,1019.48
2018-09-29T03:07:19.690Z,1019.45
2018-09-29T03:08:19.583Z,1019.39
2018-09-29T03:09:19.564Z,1019.38
2018-09-29T03:10:19.609Z,1019.37
2018-09-29T03:11:19.523Z,1019.38
2018-09-29T03:12:19.570Z,1019.38
2018-09-29T03:13:19.522Z,1019.37
2018-09-29T03:14:19.612Z,1019.45
2018-09-29T03:15:19.523Z,1019.45
2018-09-29T03:16:19.490Z,1019.42
2018-09-29T03:17:19.612Z,1019.40
2018-09-29T03:18:19.659Z,1019.44
2018-09-29T03:19:19.733Z,1019.40
2018-09-29T03:20:19.661Z,1019.43
2018-09-29T03:21:19.682Z,1019.48
2018-09-29T03:22:19.639Z,1019.48
2018-09-29T03:23:19.648Z,1019.51
2018-09-29T03:24:19.647Z,1019.52
2018-09-29T03:25:19.640Z,1019.46
2018-09-29T03:26:19.558Z,1019.50
2018-09-29T03:27:19.565Z,1019.46
2018-09-29T03:28:19.562Z,1019.44
2018-09-29T03:29:19.638Z,1019.46
2018-09-29T03:30:19.657Z,1019.49
2018-09-29T03:31:19.736Z,1019.45
2018-09-29T03:32:19.639Z,1019.49
2018-09-29T03:33:19.643Z,1019.43
2018-09-29T03:34:19.637Z,1019.37
2018-09-29T03:35:19.580Z,1019.40
2018-09-29T03:36:19.738Z,1019.38
2018-09-29T03:37:19.640Z,1019.36
2018-09-29T03:38:19.545Z,1019.36
2018-09-29T03:39:19.616Z,1019.38
2018-09-29T03:40:19.586Z,1019.41
2018-09-29T03:41:19.612Z,1019.42
2018-09-29T03:42:19.635Z,1019.39
2018-09-29T03:43:19.546Z,1019.43
2018-09-29T03:44:19.702Z,1019.41
2018-09-29T03:45:19.625Z,1019.42
2018-09-29T03:46:19.548Z,1019.50
2018-09-29T03:47:19.546Z,1019.49
2018-09-29T03:48:19.617Z,1019.49
2018-09-29T03:49:19.655Z,1019.46
2018-09-29T03:50:19.595Z,1019.46
2018-09-29T03:51:19.627Z,1019.36
2018-09-29T03:52:19.676Z,1019.40
2018-09-29T03:53:19.687Z,1019.43
2018-09-29T03:54:19.691Z,1019.43
2018-09-29T03:55:19.627Z,1019.49
2018-09-29T03:56:19.621Z,1019.47
2018-09-29T03:57:19.600Z,1019.44
2018-09-29T03:58:19.686Z,1019.45
2018-09-29T03:59:19.598Z,1019.45
2018-09-29T04:00:19.682Z,1019.45
2018-09-29T04:01:19.663Z,1019.47
2018-09-29T04:02:19.595Z,1019.48
2018-09-29T04:03:19.678Z,1019.48
2018-09-29T04:04:19.563Z,1019.48
2018-09-29T04:05:19.726Z,1019.46
2018-09-29T04:06:19.584Z,1019.46
2018-09-29T04:07:19.668Z,1019.45
2018-09-29T04:08:19.660Z,1019.43
2018-09-29T04:09:19.689Z,1019.45
2018-09-29T04:10:19.667Z,1019.51
2018-09-29T04:11:19.604Z,1019.52
2018-09-29T04:12:19.682Z,1019.53
2018-09-29T04:13:19.604Z,1019.53
2018-09-29T04:14:19.687Z,1019.52
2018-09-29T04:15:19.605Z,1019.54
2018-09-29T04:16:19.707Z,1019.56
2018-09-29T04:17:19.606Z,1019.52
2018-09-29T04:18:19.631Z,1019.58
2018-09-29T04:19:19.682Z,1019.53
2018-09-29T04:20:19.691Z,1019.56
2018-09-29T04:21:19.685Z,1019.60
2018-09-29T04:22:19.618Z,1019.59
2018-09-29T04:23:19.613Z,1019.63
2018-09-29T04:24:19.697Z,1019.67
2018-09-29T04:25:19.616Z,1019.66
2018-09-29T04:26:19.612Z,1019.68
2018-09-29T04:27:19.687Z,1019.64
2018-09-29T04:28:19.704Z,1019.66
2018-09-29T04:29:19.715Z,1019.67
2018-09-29T04:30:19.723Z,1019.67
2018-09-29T04:31:19.609Z,1019.66
2018-09-29T04:32:19.694Z,1019.64
2018-09-29T04:33:19.605Z,1019.65
2018-09-29T04:34:19.684Z,1019.67
2018-09-29T04:35:19.606Z,1019.72
2018-09-29T04:36:19.715Z,1019.71
2018-09-29T04:37:19.692Z,1019.63
2018-09-29T04:38:19.647Z,1019.67
2018-09-29T04:39:19.606Z,1019.68
2018-09-29T04:40:19.713Z,1019.67
2018-09-29T04:41:19.612Z,1019.66
2018-09-29T04:42:19.693Z,1019.70
2018-09-29T04:43:19.775Z,1019.71
2018-09-29T04:44:19.732Z,1019.72
2018-09-29T04:45:19.678Z,1019.71
2018-09-29T04:46:19.639Z,1019.74
2018-09-29T04:47:19.691Z,1019.68
2018-09-29T04:48:19.697Z,1019.75
2018-09-29T04:49:19.691Z,1019.76
2018-09-29T04:50:19.624Z,1019.80
2018-09-29T04:51:19.628Z,1019.80
2018-09-29T04:52:19.693Z,1019.80
2018-09-29T04:53:19.624Z,1019.80
2018-09-29T04:54:19.792Z,1019.80
2018-09-29T04:55:19.630Z,1019.80
2018-09-29T04:56:19.697Z,1019.80
2018-09-29T04:57:19.632Z,1019.80
2018-09-29T04:58:19.628Z,1019.80
2018-09-29T04:59:19.634Z,1019.80
2018-09-29T05:00:19.697Z,1019.80
2018-09-29T05:01:19.633Z,1019.80
2018-09-29T05:02:19.699Z,1019.80
2018-09-29T05:03:19.709Z,1019.80
2018-09-29T05:04:19.701Z,1019.80
2018-09-29T05:05:19.627Z,1019.80
2018-09-29T05:06:19.723Z,1019.80
2018-09-29T05:07:19.633Z,1019.80
2018-09-29T05:08:19.720Z,1019.80
2018-09-29T05:09:19.654Z,1019.80
2018-09-29T05:10:19.674Z,1019.80
2018-09-29T05:11:19.723Z,1019.80
2018-09-29T05:12:19.726Z,1019.80
2018-09-29T05:13:19.662Z,1019.80
2018-09-29T05:14:19.662Z,1019.80
2018-09-29T05:15:19.667Z,1019.80
2018-09-29T05:16:19.669Z,1019.80
2018-09-29T05:17:19.724Z,1019.80
2018-09-29T05:18:19.684Z,1019.80
2018-09-29T05:19:19.750Z,1019.80
2018-09-29T05:20:19.686Z,1019.80
2018-09-29T05:21:19.639Z,1019.80
2018-09-29T05:22:19.682Z,1019.80
2018-09-29T05:23:19.834Z,1019.80
2018-09-29T05:24:19.734Z,1019.80
2018-09-29T05:25:19.640Z,1019.80
2018-09-29T05:26:19.733Z,1019.80
2018-09-29T05:27:19.639Z,1019.80
2018-09-29T05:28:19.672Z,1019.80
2018-09-29T05:29:19.733Z,1019.80
2018-09-29T05:30:19.725Z,1019.80
2018-09-29T05:31:19.784Z,1019.80
2018-09-29T05:32:19.741Z,1019.80
2018-09-29T05:33:19.733Z,1019.80
2018-09-29T05:34:19.660Z,1019.80
2018-09-29T05:35:19.667Z,1019.80
2018-09-29T05:36:19.628Z,1019.80
2018-09-29T05:37:19.707Z,1019.80
2018-09-29T05:38:19.767Z,1019.80
2018-09-29T05:39:19.651Z,1019.80
2018-09-29T05:40:19.727Z,1019.80
2018-09-29T05:41:19.729Z,1019.80
2018-09-29T05:42:19.657Z,1019.80
2018-09-29T05:43:19.828Z,1019.80
2018-09-29T05:44:19.735Z,1019.80
2018-09-29T05:45:19.657Z,1019.80
2018-09-29T05:46:19.724Z,1019.80
2018-09-29T05:47:19.730Z,1019.80
2018-09-29T05:48:19.704Z,1019.80
2018-09-29T05:49:19.655Z,1019.80
2018-09-29T05:50:19.644Z,1019.80
2018-09-29T05:51:19.644Z,1019.80
2018-09-29T05:52:19.733Z,1019.80
2018-09-29T05:53:19.658Z,1019.80
2018-09-29T05:54:19.745Z,1019.80
2018-09-29T05:55:19.664Z,1019.80
2018-09-29T05:56:19.647Z,1019.80
2018-09-29T05:57:19.740Z,1019.80
2018-09-29T05:58:19.767Z,1019.80
2018-09-29T05:59:19.744Z,1019.80
2018-09-29T06:00:19.896Z,1019.80
2018-09-29T06:01:19.740Z,1019.80
2018-09-29T06:02:19.740Z,1019.80
2018-09-29T06:03:19.672Z,1019.80
2018-09-29T06:04:19.674Z,1019.80
2018-09-29T06:05:19.728Z,1019.80
2018-09-29T06:06:19.673Z,1019.80
2018-09-29T06:07:19.864Z,1019.80
2018-09-29T06:08:19.697Z,1019.80
2018-09-29T06:09:19.760Z,1019.80
2018-09-29T06:10:19.658Z,1019.80
2018-09-29T06:11:19.747Z,1019.80
2018-09-29T06:12:19.746Z,1019.80
2018-09-29T06:13:19.805Z,1019.80
2018-09-29T06:14:19.715Z,1019.80
2018-09-29T06:15:19.754Z,1019.80
2018-09-29T06:16:19.677Z,1019.80
2018-09-29T06:17:19.682Z,1019.80
2018-09-29T06:18:19.693Z,1019.80
2018-09-29T06:19:19.746Z,1019.80
2018-09-29T06:20:19.633Z,1019.80
2018-09-29T06:21:19.658Z,1019.80
2018-09-29T06:22:19.635Z,1019.80
2018-09-29T06:23:19.754Z,1019.80
2018-09-29T06:24:19.660Z,1019.80
2018-09-29T06:25:19.655Z,1019.80
2018-09-29T06:26:19.715Z,1019.80
2018-09-29T06:27:19.636Z,1019.80
2018-09-29T06:28:19.703Z,1019.80
2018-09-29T06:29:19.705Z,1019.80
2018-09-29T06:30:19.710Z,1019.80
2018-09-29T06:31:19.773Z,1019.80
2018-09-29T06:32:19.703Z,1019.80
2018-09-29T06:33:19.769Z,1019.80
2018-09-29T06:34:19.865Z,1019.80
2018-09-29T06:35:19.702Z,1019.80
2018-09-29T06:36:19.774Z,1019.80
2018-09-29T06:37:19.779Z,1019.80
2018-09-29T06:38:19.750Z,1019.80
2018-09-29T06:39:19.731Z,1019.80
2018-09-29T06:40:19.680Z,1019.80
2018-09-29T06:41:19.712Z,1019.80
2018-09-29T06:42:19.805Z,1019.80
2018-09-29T06:43:19.805Z,1019.80
2018-09-29T06:44:19.811Z,1019.80
2018-09-29T06:45:19.697Z,1019.80
2018-09-29T06:46:19.803Z,1019.80
2018-09-29T06:47:19.800Z,1019.80
2018-09-29T06:48:19.707Z,1019.80
2018-09-29T06:49:19.718Z,1019.80
2018-09-29T06:50:19.791Z,1019.80
2018-09-29T06:51:19.715Z,1019.80
2018-09-29T06:52:19.727Z,1019.80
2018-09-29T06:53:19.726Z,1019.80
2018-09-29T06:54:19.737Z,1019.80
2018-09-29T06:55:19.726Z,1019.80
2018-09-29T06:56:19.794Z,1019.80
2018-09-29T06:57:19.725Z,1019.80
2018-09-29T06:58:19.724Z,1019.80
2018-09-29T06:59:19.822Z,1019.80
2018-09-29T07:00:19.709Z,1019.80
2018-09-29T07:01:19.790Z,1019.80
2018-09-29T07:02:19.794Z,1019.80
2018-09-29T07:03:19.718Z,1019.80
2018-09-29T07:04:19.820Z,1019.80
2018-09-29T07:05:19.736Z,1019.80
2018-09-29T07:06:19.759Z,1019.80
2018-09-29T07:07:19.736Z,1019.80
2018-09-29T07:08:19.736Z,1019.80
2018-09-29T07:09:19.798Z,1019.80
2018-09-29T07:10:19.800Z,1019.80
2018-09-29T07:11:19.857Z,1019.80
2018-09-29T07:12:19.800Z,1019.80
2018-09-29T07:13:19.791Z,1019.80
2018-09-29T07:14:19.737Z,1019.80
2018-09-29T07:15:19.813Z,1019.80
2018-09-29T07:16:19.801Z,1019.80
2018-09-29T07:17:19.734Z,1019.80
2018-09-29T07:18:19.735Z,1019.80
2018-09-29T07:19:19.726Z,1019.80
2018-09-29T07:20:19.832Z,1019.80
2018-09-29T07:21:19.775Z,1019.80
2018-09-29T07:22:19.871Z,1019.80
2018-09-29T07:23:19.856Z,1019.80
2018-09-29T07:24:19.791Z,1019.80
2018-09-29T07:25:19.826Z,1019.80
2018-09-29T07:26:19.756Z,1019.80
2018-09-29T07:27:19.808Z,1019.80
2018-09-29T07:28:19.833Z,1019.80
2018-09-29T07:29:19.808Z,1019.80
2018-09-29T07:30:19.747Z,1019.80
2018-09-29T07:31:19.836Z,1019.80
2018-09-29T07:32:19.893Z,1019.80
2018-09-29T07:33:19.816Z,1019.80
2018-09-29T07:34:19.748Z,1019.80
2018-09-29T07:35:19.748Z,1019.80
2018-09-29T07:36:19.749Z,1019.80
2018-09-29T07:37:19.818Z,1019.80
2018-09-29T07:38:19.819Z,1019.80
2018-09-29T07:39:19.817Z,1019.80
2018-09-29T07:40:19.816Z,1019.80
2018-09-29T07:41:19.755Z,1019.80
2018-09-29T07:42:19.758Z,1019.80
2018-09-29T07:43:19.825Z,1019.80
2018-09-29T07:44:19.753Z,1019.80
2018-09-29T07:45:19.819Z,1019.80
2018-09-29T07:46:19.830Z,1019.80
2018-09-29T07:47:19.717Z,1019.80
2018-09-29T07:48:19.713Z,1019.80
2018-09-29T07:49:19.932Z,1019.80
2018-09-29T07:50:19.827Z,1019.80
2018-09-29T07:51:19.813Z,1019.80
2018-09-29T07:52:19.762Z,1019.80
2018-09-29T07:53:19.768Z,1019.80
2018-09-29T07:54:19.828Z,1019.80
2018-09-29T07:55:19.773Z,1019.80
2018-09-29T07:56:19.850Z,1019.80
2018-09-29T07:57:19.762Z,1019.80
2018-09-29T07:58:19.761Z,1019.80
2018-09-29T07:59:19.767Z,1019.80
2018-09-29T08:00:19.829Z,1019.80
2018-09-29T08:01:19.804Z,1019.80
2018-09-29T08:02:19.770Z,1019.80
2018-09-29T08:03:19.899Z,1019.80
2018-09-29T08:04:19.812Z,1019.80
2018-09-29T08:05:19.807Z,1019.80
2018-09-29T08:06:19.913Z,1019.80
2018-09-29T08:07:19.739Z,1019.80
2018-09-29T08:08:19.808Z,1019.80
2018-09-29T08:09:19.706Z,1019.80
2018-09-29T08:10:19.812Z,1019.80
2018-09-29T08:11:19.763Z,1019.80
2018-09-29T08:12:19.790Z,1019.80
2018-09-29T08:13:19.836Z,1019.80
2018-09-29T08:14:19.777Z,1019.80
2018-09-29T08:15:19.805Z,1019.80
2018-09-29T08:16:19.793Z,1019.80
2018-09-29T08:17:19.734Z,1019.80
2018-09-29T08:18:19.707Z,1019.80
2018-09-29T08:19:19.864Z,1019.80
2018-09-29T08:20:19.845Z,1019.80
2018-09-29T08:21:19.840Z,1019.80
2018-09-29T08:22:19.777Z,1019.80
2018-09-29T08:23:19.780Z,1019.80
2018-09-29T08:24:19.805Z,1019.80
2018-09-29T08:25:19.846Z,1019.80
2018-09-29T08:26:19.848Z,1019.80
2018-09-29T08:27:19.785Z,1019.80
2018-09-29T08:28:19.783Z,1019.80
2018-09-29T08:29:19.853Z,1019.80
2018-09-29T08:30:19.867Z,1019.80
2018-09-29T08:31:19.818Z,1019.80
2018-09-29T08:32:19.856Z,1019.80
2018-09-29T08:33:19.859Z,1019.80
2018-09-29T08:34:19.794Z,1019.80
2018-09-29T08:35:19.816Z,1019.80
2018-09-29T08:36:19.797Z,1019.80
2018-09-29T08:37:19.861Z,1019.80
2018-09-29T08:38:19.794Z,1019.80
2018-09-29T08:39:19.863Z,1019.80
2018-09-29T08:40:19.902Z,1019.80
2018-09-29T08:41:19.831Z,1019.80
2018-09-29T08:42:19.865Z,1019.80
2018-09-29T08:43:19.878Z,1019.80
2018-09-29T08:44:19.858Z,1019.80
2018-09-29T08:45:19.781Z,1019.80
2018-09-29T08:46:19.782Z,1019.80
2018-09-29T08:47:19.825Z,1019.80
2018-09-29T08:48:19.792Z,1019.80
2018-09-29T08:49:19.905Z,1019.80
2018-09-29T08:50:19.890Z,1019.80
2018-09-29T08:51:19.804Z,1019.80
2018-09-29T08:52:19.773Z,1019.80
2018-09-29T08:53:19.958Z,1019.80
2018-09-29T08:54:19.765Z,1019.80
2018-09-29T08:55:19.792Z,1019.80
2018-09-29T08:56:19.814Z,1019.80
2018-09-29T08:57:19.873Z,1019.80
2018-09-29T08:58:19.900Z,1019.80
2018-09-29T08:59:19.760Z,1019.80
2018-09-29T09:00:19.852Z,1019.80
2018-09-29T09:01:19.834Z,1019.80
2018-09-29T09:02:19.763Z,1019.80
2018-09-29T09:03:19.888Z,1019.80
2018-09-29T09:04:19.783Z,1019.80
2018-09-29T09:05:19.805Z,1019.80
2018-09-29T09:06:19.767Z,1019.80
2018-09-29T09:07:19.855Z,1019.80
2018-09-29T09:08:19.762Z,1019.80
2018-09-29T09:09:19.991Z,1019.80
2018-09-29T09:10:19.848Z,1019.80
2018-09-29T09:11:19.912Z,1019.80
2018-09-29T09:12:19.836Z,1019.80
2018-09-29T09:13:19.851Z,1019.80
2018-09-29T09:14:19.925Z,1019.80
2018-09-29T09:15:19.824Z,1019.80
2018-09-29T09:16:19.884Z,1019.80
2018-09-29T09:17:19.950Z,1019.80
2018-09-29T09:18:19.805Z,1019.80
2018-09-29T09:19:19.896Z,1019.80
2018-09-29T09:20:19.819Z,1019.80
2018-09-29T09:21:19.823Z,1019.80
2018-09-29T09:22:19.790Z,1019.80
2018-09-29T09:23:19.947Z,1019.80
2018-09-29T09:24:19.888Z,1019.80
2018-09-29T09:25:19.901Z,1019.80
2018-09-29T09:26:19.832Z,1019.80
2018-09-29T09:27:19.913Z,1019.80
2018-09-29T09:28:19.895Z,1019.80
2018-09-29T09:29:19.790Z,1019.80
2018-09-29T09:30:19.893Z,1019.80
2018-09-29T09:31:19.884Z,1019.80
2018-09-29T09:32:19.852Z,1019.80
2018-09-29T09:33:20.089Z,1019.80
2018-09-29T09:34:19.795Z,1019.80
2018-09-29T09:35:19.831Z,1019.80
2018-09-29T09:36:19.803Z,1019.80
2018-09-29T09:37:19.838Z,1019.80
2018-09-29T09:38:19.772Z,1019.80
2018-09-29T09:39:19.942Z,1019.80
2018-09-29T09:40:19.818Z,1019.80
2018-09-29T09:41:19.868Z,1019.80
2018-09-29T09:42:19.817Z,1019.80
2018-09-29T09:43:19.928Z,1019.80
2018-09-29T09:44:19.871Z,1019.80
2018-09-29T09:45:19.924Z,1019.80
2018-09-29T09:46:19.906Z,1019.80
2018-09-29T09:47:19.948Z,1019.80
2018-09-29T09:48:19.947Z,1019.80
2018-09-29T09:49:19.896Z,1019.80
2018-09-29T09:50:19.873Z,1019.80
2018-09-29T09:51:19.878Z,1019.80
2018-09-29T09:52:19.910Z,1019.80
2018-09-29T09:53:19.810Z,1019.80
2018-09-29T09:54:19.908Z,1019.80
2018-09-29T09:55:19.920Z,1019.80
2018-09-29T09:56:19.948Z,1019.80
2018-09-29T09:57:19.938Z,1019.80
2018-09-29T09:58:19.857Z,1019.80
2018-09-29T09:59:19.858Z,1019.80
2018-09-29T10:00:19.928Z,1019.80
2018-09-29T10:01:19.853Z,1019.80
2018-09-29T10:02:19.930Z,1019.80
2018-09-29T10:03:19.853Z,1019.80
2018-09-29T10:04:19.853Z,1019.80
2018-09-29T10:05:19.922Z,1019.80
2018-09-29T10:06:19.900Z,1019.80
2018-09-29T10:07:19.859Z,1019.80
2018-09-29T10:08:19.941Z,1019.80
2018-09-29T10:09:19.910Z,1019.80
2018-09-29T10:10:19.837Z,1019.80
2018-09-29T10:11:19.863Z,1019.80
2018-09-29T10:12:19.883Z,1019.80
2018-09-29T10:13:19.892Z,1019.80
2018-09-29T10:14:19.886Z,1019.80
2018-09-29T10:15:19.848Z,1019.80
2018-09-29T10:16:19.928Z,1019.80
2018-09-29T10:17:19.972Z,1019.80
2018-09-29T10:18:19.949Z,1019.80
2018-09-29T10:19:19.849Z,1019.80
2018-09-29T10:20:19.919Z,1019.80
2018-09-29T10:21:19.961Z,1019.80
2018-09-29T10:22:19.925Z,1019.80
2018-09-29T10:23:19.924Z,1019.80
2018-09-29T10:24:19.863Z,1019.80
2018-09-29T10:25:19.929Z,1019.80
2018-09-29T10:26:19.889Z,1019.80
2018-09-29T10:27:19.859Z,1019.80
2018-09-29T10:28:19.928Z,1019.80
2018-09-29T10:29:19.861Z,1019.80
2018-09-29T10:30:19.932Z,1019.80
2018-09-29T10:31:19.867Z,1019.80
2018-09-29T10:32:19.889Z,1019.80
2018-09-29T10:33:19.863Z,1019.80
2018-09-29T10:34:19.883Z,1019.80
2018-09-29T10:35:19.934Z,1019.80
2018-09-29T10:36:19.871Z,1019.80
2018-09-29T10:37:19.873Z,1019.80
2018-09-29T10:38:19.941Z,1019.80
2018-09-29T10:39:19.824Z,1019.80
2018-09-29T10:40:19.810Z,1019.80
2018-09-29T10:41:19.825Z,1019.80
2018-09-29T10:42:19.883Z,1019.80
2018-09-29T10:43:19.882Z,1019.80
2018-09-29T10:44:19.873Z,1019.80
2018-09-29T10:45:19.908Z,1019.80
2018-09-29T10:46:19.911Z,1019.80
2018-09-29T10:47:19.846Z,1019.80
2018-09-29T10:48:19.823Z,1019.80
2018-09-29T10:49:19.904Z,1019.80
2018-09-29T10:50:19.946Z,1019.80
2018-09-29T10:51:19.877Z,1019.80
2018-09-29T10:52:19.869Z,1019.80
2018-09-29T10:53:19.875Z,1019.80
2018-09-29T10:54:19.869Z,1019.80
2018-09-29T10:55:19.947Z,1019.80
2018-09-29T10:56:19.880Z,1019.80
2018-09-29T10:57:19.951Z,1019.80
2018-09-29T10:58:19.950Z,1019.80
2018-09-29T10:59:19.957Z,1019.80
2018-09-29T11:00:19.892Z,1019.80
2018-09-29T11:01:19.961Z,1019.80
2018-09-29T11:02:19.894Z,1019.80
2018-09-29T11:03:19.895Z,1019.80
2018-09-29T11:04:19.964Z,1019.80
2018-09-29T11:05:19.970Z,1019.80
2018-09-29T11:06:19.896Z,1019.80
2018-09-29T11:07:19.896Z,1019.80
2018-09-29T11:08:19.965Z,1019.80
2018-09-29T11:09:19.973Z,1019.80
2018-09-29T11:10:19.966Z,1019.80
2018-09-29T11:11:19.959Z,1019.80
2018-09-29T11:12:19.908Z,1019.80
2018-09-29T11:13:19.897Z,1019.80
2018-09-29T11:14:19.884Z,1019.80
2018-09-29T11:15:19.908Z,1019.80
2018-09-29T11:16:19.924Z,1019.80
2018-09-29T11:17:20.038Z,1019.80
2018-09-29T11:18:19.913Z,1019.80
2018-09-29T11:19:19.969Z,1019.80
2018-09-29T11:20:19.891Z,1019.80
2018-09-29T11:21:19.964Z,1019.80
2018-09-29T11:22:19.968Z,1019.80
2018-09-29T11:23:19.892Z,1019.80
2018-09-29T11:24:19.903Z,1019.80
2018-09-29T11:25:19.972Z,1019.80
2018-09-29T11:26:19.905Z,1019.80
2018-09-29T11:27:19.896Z,1019.80
2018-09-29T11:28:20.031Z,1019.80
2018-09-29T11:29:19.976Z,1019.80
2018-09-29T11:30:19.942Z,1019.80
2018-09-29T11:31:19.905Z,1019.80
2018-09-29T11:32:19.951Z,1019.80
2018-09-29T11:33:19.959Z,1019.80
2018-09-29T11:34:19.943Z,1019.80
2018-09-29T11:35:19.904Z,1019.80
2018-09-29T11:36:19.953Z,1019.80
2018-09-29T11:37:19.958Z,1019.80
2018-09-29T11:38:19.962Z,1019.80
2018-09-29T11:39:20.043Z,1019.80
2018-09-29T11:40:19.959Z,1019.80
2018-09-29T11:41:19.985Z,1019.80
2018-09-29T11:42:19.993Z,1019.80
2018-09-29T11:43:20.015Z,1019.80
2018-09-29T11:44:19.887Z,1019.80
2018-09-29T11:45:20.028Z,1019.80
2018-09-29T11:46:19.892Z,1019.80
2018-09-29T11:47:20.011Z,1019.80
2018-09-29T11:48:19.989Z,1019.80
2018-09-29T11:49:19.948Z,1019.80
2018-09-29T11:50:19.956Z,1019.80
2018-09-29T11:51:19.994Z,1019.80
2018-09-29T11:52:20.022Z,1019.80
2018-09-29T11:53:19.967Z,1019.80
2018-09-29T11:54:20.073Z,1019.80
2018-09-29T11:55:20.022Z,1019.80
2018-09-29T11:56:20.093Z,1019.80
2018-09-29T11:57:20.039Z,1019.80
2018-09-29T11:58:20.019Z,1019.80
2018-09-29T11:59:19.965Z,1019.80
2018-09-29T12:00:19.919Z,1019.80
2018-09-29T12:01:20.003Z,1019.80
2018-09-29T12:02:20.043Z,1019.80
2018-09-29T12:03:20.038Z,1019.80
2018-09-29T12:04:19.988Z,1019.80
2018-09-29T12:05:20.014Z,1019.80